createdAt,value
2018-11-21T00:00:12.353Z,2.15
2018-11-21T00:02:40.685Z,2.16
2018-11-21T00:05:09.053Z,2.16
2018-11-21T00:07:37.900Z,2.14
2018-11-21T00:10:09.072Z,2.10
2018-11-21T00:12:38.041Z,2.05
2018-11-21T00:15:08.497Z,2.02
2018-11-21T00:17:36.870Z,1.96
2018-11-21T00:20:06.420Z,1.92
2018-11-21T00:22:35.072Z,1.89
2018-11-21T00:25:03.446Z,1.84
2018-11-21T00:27:31.800Z,1.80
2018-11-21T00:30:00.184Z,1.77
2018-11-21T00:32:28.763Z,1.72
2018-11-21T00:34:57.191Z,1.68
2018-11-21T00:37:26.161Z,1.61
2018-11-21T00:39:54.828Z,1.57
2018-11-21T00:42:23.200Z,1.50
2018-11-21T00:44:51.546Z,1.46
2018-11-21T00:47:19.912Z,1.40
2018-11-21T00:49:48.238Z,1.36
2018-11-21T00:52:16.605Z,1.31
2018-11-21T00:54:44.948Z,1.24
2018-11-21T00:57:13.302Z,1.20
2018-11-21T00:59:41.947Z,1.15
2018-11-21T01:02:10.313Z,1.10
2018-11-21T01:04:38.656Z,1.04
2018-11-21T01:07:07.033Z,1.02
2018-11-21T01:09:35.395Z,0.98
2018-11-21T01:12:03.728Z,0.96
2018-11-21T01:14:32.088Z,0.95
2018-11-21T01:17:00.425Z,0.93
2018-11-21T01:19:28.792Z,0.93
2018-11-21T01:21:57.133Z,0.92
2018-11-21T01:24:25.496Z,0.93
2018-11-21T01:26:53.834Z,0.92
2018-11-21T01:29:22.213Z,0.92
2018-11-21T01:31:50.548Z,0.92
2018-11-21T01:34:18.907Z,0.93
2018-11-21T01:36:47.267Z,0.94
2018-11-21T01:39:15.624Z,0.95
2018-11-21T01:41:43.970Z,0.93
2018-11-21T01:44:12.376Z,0.93
2018-11-21T01:46:40.712Z,0.95
2018-11-21T01:49:09.048Z,0.96
2018-11-21T01:51:37.408Z,0.96
2018-11-21T01:54:06.025Z,0.97
2018-11-21T01:56:34.382Z,0.97
2018-11-21T01:59:02.751Z,0.97
2018-11-21T02:01:31.138Z,0.97
2018-11-21T02:03:59.485Z,0.97
2018-11-21T02:06:27.880Z,0.98
2018-11-21T02:08:56.232Z,0.98
2018-11-21T02:11:24.599Z,0.97
2018-11-21T02:13:52.954Z,0.97
2018-11-21T02:16:21.327Z,0.94
2018-11-21T02:18:49.672Z,0.97
2018-11-21T02:21:18.024Z,0.95
2018-11-21T02:23:46.431Z,0.95
2018-11-21T02:26:14.800Z,0.94
2018-11-21T02:28:43.356Z,0.95
2018-11-21T02:31:11.817Z,0.95
2018-11-21T02:33:40.184Z,0.94
2018-11-21T02:36:08.534Z,0.94
2018-11-21T02:38:36.914Z,0.93
2018-11-21T02:41:05.271Z,0.92
2018-11-21T02:43:33.657Z,0.91
2018-11-21T02:46:02.086Z,0.91
2018-11-21T02:48:30.461Z,0.90
2018-11-21T02:50:58.820Z,0.91
2018-11-21T02:53:27.182Z,0.92
2018-11-21T02:55:55.559Z,0.92
2018-11-21T02:58:24.298Z,0.93
2018-11-21T03:00:52.669Z,0.94
2018-11-21T03:03:21.020Z,0.93
2018-11-21T03:05:49.403Z,0.93
2018-11-21T03:08:17.754Z,0.94
2018-11-21T03:10:46.136Z,0.94
2018-11-21T03:13:14.470Z,0.95
2018-11-21T03:15:42.840Z,0.95
2018-11-21T03:18:11.215Z,0.94
2018-11-21T03:20:39.639Z,0.94
2018-11-21T03:23:07.981Z,0.93
2018-11-21T03:25:36.334Z,0.92
2018-11-21T03:28:04.819Z,0.91
2018-11-21T03:30:33.170Z,0.90
2018-11-21T03:33:01.547Z,0.92
2018-11-21T03:35:29.932Z,0.90
2018-11-21T03:37:58.297Z,0.91
2018-11-21T03:40:26.641Z,0.91
2018-11-21T03:42:55.028Z,0.90
2018-11-21T03:45:23.369Z,0.89
2018-11-21T03:47:51.760Z,0.89
2018-11-21T03:50:20.106Z,0.89
2018-11-21T03:52:48.481Z,0.89
2018-11-21T03:55:16.816Z,0.88
2018-11-21T03:57:45.198Z,0.89
2018-11-21T04:00:14.203Z,0.88
2018-11-21T04:02:42.818Z,0.88
2018-11-21T04:05:11.373Z,0.89
2018-11-21T04:07:39.741Z,0.89
2018-11-21T04:10:10.776Z,0.89
2018-11-21T04:12:39.259Z,0.88
2018-11-21T04:15:08.817Z,0.88
2018-11-21T04:17:37.205Z,0.90
2018-11-21T04:20:06.526Z,0.89
2018-11-21T04:22:34.919Z,0.90
2018-11-21T04:25:03.271Z,0.89
2018-11-21T04:27:31.644Z,0.88
2018-11-21T04:30:00.094Z,0.87
2018-11-21T04:32:28.401Z,0.86
2018-11-21T04:34:56.751Z,0.85
2018-11-21T04:37:25.140Z,0.86
2018-11-21T04:39:53.491Z,0.86
2018-11-21T04:42:21.888Z,0.85
2018-11-21T04:44:50.245Z,0.85
2018-11-21T04:47:18.623Z,0.84
2018-11-21T04:49:46.967Z,0.84
2018-11-21T04:52:15.303Z,0.83
2018-11-21T04:54:43.676Z,0.82
2018-11-21T04:57:12.016Z,0.82
2018-11-21T04:59:40.372Z,0.82
2018-11-21T05:02:08.705Z,0.83
2018-11-21T05:04:37.075Z,0.83
2018-11-21T05:07:05.444Z,0.81
2018-11-21T05:09:33.816Z,0.82
2018-11-21T05:12:02.332Z,0.81
2018-11-21T05:14:30.696Z,0.82
2018-11-21T05:16:59.030Z,0.80
2018-11-21T05:19:27.397Z,0.80
2018-11-21T05:21:55.733Z,0.80
2018-11-21T05:24:24.136Z,0.80
2018-11-21T05:26:52.483Z,0.81
2018-11-21T05:29:20.898Z,0.80
2018-11-21T05:31:49.352Z,0.80
2018-11-21T05:34:17.728Z,0.77
2018-11-21T05:36:46.080Z,0.78
2018-11-21T05:39:14.451Z,0.78
2018-11-21T05:41:42.821Z,0.78
2018-11-21T05:44:11.385Z,0.76
2018-11-21T05:46:39.762Z,0.76
2018-11-21T05:49:08.234Z,0.77
2018-11-21T05:51:36.608Z,0.74
2018-11-21T05:54:05.136Z,0.74
2018-11-21T05:56:33.506Z,0.73
2018-11-21T05:59:01.854Z,0.71
2018-11-21T06:01:30.229Z,0.71
2018-11-21T06:03:58.574Z,0.69
2018-11-21T06:06:26.942Z,0.69
2018-11-21T06:08:55.295Z,0.68
2018-11-21T06:11:23.670Z,0.67
2018-11-21T06:13:52.019Z,0.66
2018-11-21T06:16:20.366Z,0.66
2018-11-21T06:18:48.930Z,0.65
2018-11-21T06:21:17.275Z,0.63
2018-11-21T06:23:45.854Z,0.63
2018-11-21T06:26:14.194Z,0.63
2018-11-21T06:28:42.568Z,0.61
2018-11-21T06:31:10.920Z,0.60
2018-11-21T06:33:39.397Z,0.60
2018-11-21T06:36:07.748Z,0.60
2018-11-21T06:38:36.125Z,0.58
2018-11-21T06:41:04.553Z,0.55
2018-11-21T06:43:32.927Z,0.58
2018-11-21T06:46:01.371Z,0.58
2018-11-21T06:48:29.745Z,0.56
2018-11-21T06:50:58.128Z,0.56
2018-11-21T06:53:26.545Z,0.57
2018-11-21T06:55:54.885Z,0.57
2018-11-21T06:58:23.258Z,0.57
2018-11-21T07:00:51.611Z,0.57
2018-11-21T07:03:19.959Z,0.59
2018-11-21T07:05:48.328Z,0.62
2018-11-21T07:08:16.677Z,0.64
2018-11-21T07:10:45.058Z,0.66
2018-11-21T07:13:13.402Z,0.68
2018-11-21T07:15:41.767Z,0.68
2018-11-21T07:18:10.123Z,0.69
2018-11-21T07:20:38.495Z,0.70
2018-11-21T07:23:06.848Z,0.71
2018-11-21T07:25:35.219Z,0.75
2018-11-21T07:28:03.573Z,0.76
2018-11-21T07:30:31.942Z,0.76
2018-11-21T07:33:00.293Z,0.75
2018-11-21T07:35:28.658Z,0.76
2018-11-21T07:37:57.000Z,0.77
2018-11-21T07:40:25.398Z,0.78
2018-11-21T07:42:53.768Z,0.81
2018-11-21T07:45:22.155Z,0.83
2018-11-21T07:47:50.508Z,0.85
2018-11-21T07:50:20.395Z,0.87
2018-11-21T07:52:48.763Z,0.89
2018-11-21T07:55:17.129Z,0.92
2018-11-21T07:57:47.375Z,0.95
2018-11-21T08:01:19.511Z,0.97
2018-11-21T08:03:52.314Z,0.99
2018-11-21T08:06:29.113Z,1.02
2018-11-21T08:09:32.006Z,1.03
2018-11-21T08:12:18.464Z,1.06
2018-11-21T08:15:08.720Z,1.08
2018-11-21T08:17:54.763Z,1.10
2018-11-21T08:20:40.972Z,1.12
2018-11-21T08:23:34.789Z,1.14
2018-11-21T08:26:21.215Z,1.16
2018-11-21T08:28:49.581Z,1.17
2018-11-21T08:31:17.922Z,1.17
2018-11-21T08:33:46.289Z,1.16
2018-11-21T08:36:14.628Z,1.17
2018-11-21T08:38:43.396Z,1.19
2018-11-21T08:41:11.773Z,1.21
2018-11-21T08:43:40.153Z,1.24
2018-11-21T08:46:10.062Z,1.25
2018-11-21T08:48:38.409Z,1.26
2018-11-21T08:51:06.826Z,1.29
2018-11-21T08:53:35.280Z,1.31
2018-11-21T08:56:03.677Z,1.34
2018-11-21T08:58:32.048Z,1.37
2018-11-21T09:01:00.420Z,1.41
2018-11-21T09:03:28.766Z,1.43
2018-11-21T09:05:57.141Z,1.46
2018-11-21T09:08:25.854Z,1.48
2018-11-21T09:10:54.222Z,1.53
2018-11-21T09:13:22.576Z,1.56
2018-11-21T09:15:53.543Z,1.64
2018-11-21T09:18:21.802Z,1.71
2018-11-21T09:20:50.168Z,1.81
2018-11-21T09:23:18.511Z,1.92
2018-11-21T09:25:46.876Z,2.03
2018-11-21T09:28:15.224Z,2.11
2018-11-21T09:30:43.594Z,2.17
2018-11-21T09:33:11.951Z,2.22
2018-11-21T09:35:40.319Z,2.26
2018-11-21T09:38:08.661Z,2.30
2018-11-21T09:40:37.029Z,2.35
2018-11-21T09:43:05.769Z,2.40
2018-11-21T09:45:34.137Z,2.44
2018-11-21T09:48:02.482Z,2.48
2018-11-21T09:50:32.135Z,2.52
2018-11-21T09:53:00.468Z,2.56
2018-11-21T09:55:28.854Z,2.58
2018-11-21T09:57:57.205Z,2.59
2018-11-21T10:01:02.050Z,2.63
2018-11-21T10:03:32.098Z,2.66
2018-11-21T10:06:09.474Z,2.69
2018-11-21T10:08:59.883Z,2.69
2018-11-21T10:11:28.748Z,2.70
2018-11-21T10:13:57.100Z,2.70
2018-11-21T10:16:25.511Z,2.69
2018-11-21T10:18:55.453Z,2.68
2018-11-21T10:21:25.308Z,2.68
2018-11-21T10:23:53.676Z,2.68
2018-11-21T10:26:22.216Z,2.67
2018-11-21T10:28:51.550Z,2.68
2018-11-21T10:31:19.905Z,2.68
2018-11-21T10:33:48.410Z,2.69
2018-11-21T10:36:16.765Z,2.71
2018-11-21T10:38:45.142Z,2.69
2018-11-21T10:41:13.485Z,2.69
2018-11-21T10:43:41.859Z,2.69
2018-11-21T10:46:10.204Z,2.68
2018-11-21T10:48:38.576Z,2.67
2018-11-21T10:51:06.921Z,2.67
2018-11-21T10:53:35.296Z,2.67
2018-11-21T10:56:03.638Z,2.66
2018-11-21T10:58:32.010Z,2.64
2018-11-21T11:01:18.314Z,2.62
2018-11-21T11:03:55.183Z,2.59
2018-11-21T11:06:36.027Z,2.59
2018-11-21T11:09:31.883Z,2.57
2018-11-21T11:12:17.925Z,2.56
2018-11-21T11:15:17.332Z,2.55
2018-11-21T11:18:07.338Z,2.54
2018-11-21T11:20:53.636Z,2.54
2018-11-21T11:23:40.017Z,2.56
2018-11-21T11:26:26.286Z,2.56
2018-11-21T11:29:12.132Z,2.54
2018-11-21T11:31:51.284Z,2.53
2018-11-21T11:34:37.558Z,2.53
2018-11-21T11:37:23.804Z,2.54
2018-11-21T11:40:10.220Z,2.53
2018-11-21T11:43:03.938Z,2.52
2018-11-21T11:45:52.428Z,2.50
2018-11-21T11:48:36.844Z,2.48
2018-11-21T11:51:27.213Z,2.45
2018-11-21T11:54:14.696Z,2.39
2018-11-21T11:57:01.138Z,2.35
2018-11-21T11:59:48.628Z,2.28
2018-11-21T12:02:30.598Z,2.25
2018-11-21T12:05:21.198Z,2.24
2018-11-21T12:08:05.656Z,2.24
2018-11-21T12:10:52.018Z,2.22
2018-11-21T12:13:45.466Z,2.22
2018-11-21T12:16:51.282Z,2.21
2018-11-21T12:19:34.329Z,2.22
2018-11-21T12:22:08.209Z,2.22
2018-11-21T12:24:54.577Z,2.25
2018-11-21T12:27:43.473Z,2.24
2018-11-21T12:30:29.683Z,2.22
2018-11-21T12:33:15.985Z,2.20
2018-11-21T12:36:09.795Z,2.19
2018-11-21T12:38:56.165Z,2.21
2018-11-21T12:41:53.533Z,2.20
2018-11-21T12:44:43.199Z,2.22
2018-11-21T12:47:33.409Z,2.22
2018-11-21T12:50:19.521Z,2.21
2018-11-21T12:53:06.186Z,2.19
2018-11-21T12:56:02.581Z,2.18
2018-11-21T12:58:40.937Z,2.16
2018-11-21T13:01:26.745Z,2.14
2018-11-21T13:04:14.765Z,2.13
2018-11-21T13:07:02.244Z,2.14
2018-11-21T13:09:56.646Z,2.15
2018-11-21T13:12:52.259Z,2.16
2018-11-21T13:15:45.907Z,2.17
2018-11-21T13:18:32.391Z,2.16
2018-11-21T13:21:17.390Z,2.19
2018-11-21T13:24:07.569Z,2.19
2018-11-21T13:26:58.981Z,2.19
2018-11-21T13:29:45.353Z,2.17
2018-11-21T13:32:32.504Z,2.15
2018-11-21T13:35:19.961Z,2.14
2018-11-21T13:38:02.037Z,2.12
2018-11-21T13:40:57.726Z,2.13
2018-11-21T13:44:00.353Z,2.14
2018-11-21T13:46:44.149Z,2.15
2018-11-21T13:49:31.629Z,2.16
2018-11-21T13:52:10.205Z,2.17
2018-11-21T13:54:48.640Z,2.15
2018-11-21T13:57:18.732Z,2.16
2018-11-21T13:59:47.098Z,2.16
2018-11-21T14:02:15.445Z,2.17
2018-11-21T14:04:43.814Z,2.18
2018-11-21T14:07:12.159Z,2.19
2018-11-21T14:09:40.533Z,2.18
2018-11-21T14:12:09.218Z,2.19
2018-11-21T14:14:37.592Z,2.19
2018-11-21T14:17:06.417Z,2.20
2018-11-21T14:19:34.778Z,2.20
2018-11-21T14:22:03.121Z,2.22
2018-11-21T14:24:31.726Z,2.23
2018-11-21T14:27:00.238Z,2.23
2018-11-21T14:29:28.592Z,2.24
2018-11-21T14:31:56.962Z,2.22
2018-11-21T14:34:25.349Z,2.20
2018-11-21T14:36:53.721Z,2.20
2018-11-21T14:39:22.084Z,2.19
2018-11-21T14:41:50.502Z,2.18
2018-11-21T14:44:18.855Z,2.18
2018-11-21T14:46:49.259Z,2.15
2018-11-21T14:49:17.619Z,2.12
2018-11-21T14:51:46.004Z,2.12
2018-11-21T14:54:14.353Z,2.11
2018-11-21T14:56:42.737Z,2.11
2018-11-21T14:59:11.143Z,2.09
2018-11-21T15:01:39.516Z,2.09
2018-11-21T15:04:07.871Z,2.10
2018-11-21T15:06:36.707Z,2.09
2018-11-21T15:09:11.160Z,2.11
2018-11-21T15:11:40.594Z,2.12
2018-11-21T15:14:08.944Z,2.10
2018-11-21T15:16:37.301Z,2.08
2018-11-21T15:19:05.862Z,2.06
2018-11-21T15:21:34.229Z,2.02
2018-11-21T15:24:02.936Z,2.02
2018-11-21T15:26:31.975Z,2.02
2018-11-21T15:29:01.585Z,2.02
2018-11-21T15:31:29.927Z,2.01
2018-11-21T15:33:58.308Z,2.01
2018-11-21T15:36:26.647Z,2.01
2018-11-21T15:38:55.014Z,2.01
2018-11-21T15:41:23.365Z,2.02
2018-11-21T15:43:51.744Z,2.01
2018-11-21T15:46:20.096Z,2.01
2018-11-21T15:48:48.549Z,2.02
2018-11-21T15:51:16.893Z,2.03
2018-11-21T15:53:45.269Z,2.04
2018-11-21T15:56:13.632Z,2.02
2018-11-21T15:58:41.971Z,2.02
2018-11-21T16:01:10.341Z,2.02
2018-11-21T16:03:38.683Z,2.03
2018-11-21T16:06:07.056Z,2.05
2018-11-21T16:08:35.408Z,2.05
2018-11-21T16:11:03.811Z,2.06
2018-11-21T16:13:32.153Z,2.08
2018-11-21T16:16:00.519Z,2.08
2018-11-21T16:18:29.073Z,2.08
2018-11-21T16:20:57.434Z,2.08
2018-11-21T16:23:25.780Z,2.07
2018-11-21T16:25:56.380Z,2.05
2018-11-21T16:28:24.721Z,2.04
2018-11-21T16:30:53.089Z,2.00
2018-11-21T16:33:21.440Z,1.98
2018-11-21T16:35:49.872Z,1.98
2018-11-21T16:38:18.301Z,1.98
2018-11-21T16:40:46.648Z,1.97
2018-11-21T16:43:15.012Z,1.98
2018-11-21T16:45:45.457Z,1.99
2018-11-21T16:48:13.828Z,2.00
2018-11-21T16:50:42.167Z,2.01
2018-11-21T16:53:10.615Z,2.04
2018-11-21T16:55:38.977Z,2.03
2018-11-21T16:58:07.343Z,2.06
2018-11-21T17:00:35.685Z,2.06
2018-11-21T17:03:04.233Z,2.07
2018-11-21T17:05:32.573Z,2.08
2018-11-21T17:08:00.909Z,2.08
2018-11-21T17:10:30.825Z,2.09
2018-11-21T17:12:59.173Z,2.10
2018-11-21T17:15:29.107Z,2.11
2018-11-21T17:17:57.446Z,2.12
2018-11-21T17:20:30.569Z,2.14
2018-11-21T17:22:59.774Z,2.13
2018-11-21T17:25:32.987Z,2.12
2018-11-21T17:28:01.325Z,2.12
2018-11-21T17:30:29.691Z,2.12
2018-11-21T17:32:58.026Z,2.12
2018-11-21T17:35:26.587Z,2.10
2018-11-21T17:37:56.176Z,2.10
2018-11-21T17:40:27.339Z,2.08
2018-11-21T17:42:56.110Z,2.09
2018-11-21T17:45:24.475Z,2.08
2018-11-21T17:47:52.851Z,2.09
2018-11-21T17:50:22.698Z,2.11
2018-11-21T17:52:52.599Z,2.09
2018-11-21T17:55:22.943Z,2.09
2018-11-21T17:57:51.285Z,2.08
2018-11-21T18:00:21.129Z,2.08
2018-11-21T18:02:49.477Z,2.09
2018-11-21T18:05:19.301Z,2.09
2018-11-21T18:07:48.010Z,2.09
2018-11-21T18:10:17.926Z,2.10
2018-11-21T18:12:46.821Z,2.09
2018-11-21T18:15:15.744Z,2.09
2018-11-21T18:17:45.332Z,2.08
2018-11-21T18:20:14.401Z,2.07
2018-11-21T18:22:43.518Z,2.07
2018-11-21T18:25:14.326Z,2.05
2018-11-21T18:27:43.227Z,2.05
2018-11-21T18:30:13.845Z,2.05
2018-11-21T18:32:43.174Z,2.05
2018-11-21T18:35:13.681Z,2.05
2018-11-21T18:37:42.504Z,2.05
2018-11-21T18:40:13.886Z,2.04
2018-11-21T18:42:42.330Z,2.04
2018-11-21T18:45:14.470Z,2.04
2018-11-21T18:47:43.590Z,2.03
2018-11-21T18:50:13.272Z,2.03
2018-11-21T18:52:44.446Z,2.02
2018-11-21T18:55:15.254Z,2.02
2018-11-21T18:58:30.488Z,2.02
2018-11-21T19:00:58.870Z,2.04
2018-11-21T19:03:27.233Z,2.04
2018-11-21T19:05:55.579Z,2.04
2018-11-21T19:08:23.964Z,2.06
2018-11-21T19:10:52.746Z,2.07
2018-11-21T19:13:21.673Z,2.08
2018-11-21T19:15:50.010Z,2.08
2018-11-21T19:18:18.527Z,2.08
2018-11-21T19:20:46.966Z,2.08
2018-11-21T19:23:15.345Z,2.10
2018-11-21T19:25:43.704Z,2.10
2018-11-21T19:28:12.057Z,2.11
2018-11-21T19:30:40.681Z,2.10
2018-11-21T19:33:09.028Z,2.11
2018-11-21T19:35:37.409Z,2.11
2018-11-21T19:38:05.874Z,2.12
2018-11-21T19:40:34.236Z,2.13
2018-11-21T19:43:02.580Z,2.15
2018-11-21T19:45:30.942Z,2.15
2018-11-21T19:47:59.288Z,2.15
2018-11-21T19:50:27.677Z,2.15
2018-11-21T19:52:56.049Z,2.12
2018-11-21T19:55:26.161Z,2.12
2018-11-21T19:57:54.612Z,2.13
2018-11-21T20:00:27.236Z,2.09
2018-11-21T20:02:55.593Z,2.08
2018-11-21T20:05:23.966Z,2.08
2018-11-21T20:07:52.647Z,2.06
2018-11-21T20:10:21.674Z,2.03
2018-11-21T20:12:50.019Z,2.02
2018-11-21T20:15:20.167Z,2.02
2018-11-21T20:17:53.803Z,1.99
2018-11-21T20:20:22.664Z,1.97
2018-11-21T20:22:53.378Z,1.97
2018-11-21T20:25:23.410Z,1.96
2018-11-21T20:27:51.815Z,1.94
2018-11-21T20:30:24.469Z,1.94
